createdAt,value
2018-12-19T00:00:54.932Z,5.17
2018-12-19T00:03:25.754Z,4.90
2018-12-19T00:05:56.513Z,4.30
2018-12-19T00:08:25.325Z,3.73
2018-12-19T00:10:54.128Z,4.33
2018-12-19T00:13:23.042Z,4.90
2018-12-19T00:15:51.865Z,4.40
2018-12-19T00:18:20.734Z,4.07
2018-12-19T00:20:49.540Z,5.10
2018-12-19T00:23:18.347Z,4.53
2018-12-19T00:25:47.263Z,3.73
2018-12-19T00:28:18.027Z,4.13
2018-12-19T00:30:48.860Z,3.67
2018-12-19T00:33:19.685Z,3.97
2018-12-19T00:35:50.858Z,3.73
2018-12-19T00:38:19.690Z,3.80
2018-12-19T00:40:48.493Z,4.10
2018-12-19T00:43:17.619Z,3.57
2018-12-19T00:45:46.414Z,4.87
2018-12-19T00:48:15.246Z,3.03
2018-12-19T00:50:44.045Z,3.20
2018-12-19T00:53:12.839Z,3.93
2018-12-19T00:55:41.645Z,3.87
2018-12-19T00:58:10.544Z,3.27
2018-12-19T01:00:39.453Z,3.73
2018-12-19T01:03:08.214Z,2.93
2018-12-19T01:05:37.082Z,3.60
2018-12-19T01:08:05.862Z,3.37
2018-12-19T01:10:34.776Z,3.40
2018-12-19T01:13:03.653Z,4.43
2018-12-19T01:15:32.477Z,3.80
2018-12-19T01:18:01.272Z,3.70
2018-12-19T01:20:30.141Z,2.83
2018-12-19T01:22:58.948Z,3.40
2018-12-19T01:25:27.742Z,2.87
2018-12-19T01:27:56.555Z,4.30
2018-12-19T01:30:25.372Z,3.67
2018-12-19T01:32:54.156Z,3.60
2018-12-19T01:35:22.963Z,3.87
2018-12-19T01:37:52.199Z,4.10
2018-12-19T01:40:21.072Z,3.80
2018-12-19T01:42:49.881Z,2.43
2018-12-19T01:45:18.678Z,3.20
2018-12-19T01:47:47.867Z,3.30
2018-12-19T01:50:16.646Z,3.13
2018-12-19T01:52:45.447Z,3.73
2018-12-19T01:55:14.273Z,3.33
2018-12-19T01:57:43.335Z,2.67
2018-12-19T02:00:12.149Z,3.00
2018-12-19T02:02:40.964Z,3.57
2018-12-19T02:05:09.783Z,3.70
2018-12-19T02:07:38.589Z,3.43
2018-12-19T02:10:07.475Z,3.63
2018-12-19T02:12:36.275Z,4.27
2018-12-19T02:15:05.264Z,3.20
2018-12-19T02:17:34.113Z,3.40
2018-12-19T02:20:09.603Z,3.17
2018-12-19T02:22:45.100Z,3.20
2018-12-19T02:25:13.945Z,3.23
2018-12-19T02:27:42.751Z,4.13
2018-12-19T02:30:11.543Z,3.23
2018-12-19T02:32:40.338Z,3.87
2018-12-19T02:35:09.141Z,3.70
2018-12-19T02:37:38.036Z,3.70
2018-12-19T02:40:06.961Z,3.90
2018-12-19T02:42:35.853Z,4.17
2018-12-19T02:45:05.099Z,3.60
2018-12-19T02:47:34.012Z,3.70
2018-12-19T02:50:02.916Z,3.23
2018-12-19T02:52:31.808Z,3.23
2018-12-19T02:55:00.604Z,2.97
2018-12-19T02:57:29.450Z,3.13
2018-12-19T02:59:58.242Z,3.37
2018-12-19T03:02:27.075Z,3.13
2018-12-19T03:04:55.898Z,4.20
2018-12-19T03:07:24.739Z,3.47
2018-12-19T03:09:53.555Z,2.90
2018-12-19T03:12:22.359Z,3.57
2018-12-19T03:14:51.183Z,3.13
2018-12-19T03:17:20.023Z,3.40
2018-12-19T03:19:48.820Z,3.77
2018-12-19T03:22:17.721Z,3.20
2018-12-19T03:24:46.500Z,4.33
2018-12-19T03:27:15.484Z,3.53
2018-12-19T03:29:44.323Z,3.60
2018-12-19T03:32:13.082Z,3.10
2018-12-19T03:34:41.850Z,4.17
2018-12-19T03:37:10.821Z,3.07
2018-12-19T03:39:39.631Z,3.67
2018-12-19T03:42:08.485Z,4.40
2018-12-19T03:44:37.315Z,3.43
2018-12-19T03:47:06.165Z,3.73
2018-12-19T03:49:35.433Z,3.57
2018-12-19T03:52:04.298Z,3.10
2018-12-19T03:54:33.205Z,4.43
2018-12-19T03:57:02.385Z,3.63
2018-12-19T03:59:32.471Z,4.30
2018-12-19T04:02:01.394Z,4.67
2018-12-19T04:04:30.281Z,3.30
2018-12-19T04:06:59.079Z,3.70
2018-12-19T04:09:27.960Z,3.70
2018-12-19T04:11:56.772Z,3.80
2018-12-19T04:14:25.603Z,3.97
2018-12-19T04:16:54.445Z,4.50
2018-12-19T04:19:23.239Z,4.10
2018-12-19T04:21:54.024Z,4.70
2018-12-19T04:24:23.310Z,4.27
2018-12-19T04:26:52.192Z,4.93
2018-12-19T04:29:20.994Z,4.23
2018-12-19T04:31:49.816Z,5.43
2018-12-19T04:34:18.724Z,5.80
2018-12-19T04:36:47.516Z,5.57
2018-12-19T04:39:23.055Z,7.00
2018-12-19T04:41:51.855Z,5.93
2018-12-19T04:44:20.652Z,5.33
2018-12-19T04:46:49.931Z,5.80
2018-12-19T04:49:19.054Z,6.23
2018-12-19T04:51:47.810Z,6.43
2018-12-19T04:54:16.600Z,7.33
2018-12-19T04:56:45.394Z,8.60
2018-12-19T04:59:14.415Z,6.23
2018-12-19T05:01:43.290Z,7.13
2018-12-19T05:04:12.171Z,8.90
2018-12-19T05:06:40.988Z,8.17
2018-12-19T05:09:09.781Z,8.73
2018-12-19T05:11:38.656Z,8.83
2018-12-19T05:14:07.563Z,8.77
2018-12-19T05:16:36.384Z,9.20
2018-12-19T05:19:05.297Z,9.30
2018-12-19T05:21:34.107Z,9.83
2018-12-19T05:24:03.192Z,10.37
2018-12-19T05:26:32.160Z,9.97
2018-12-19T05:29:00.970Z,10.53
2018-12-19T05:31:29.776Z,11.83
2018-12-19T05:33:58.590Z,11.27
2018-12-19T05:36:27.470Z,11.20
2018-12-19T05:38:57.393Z,10.90
2018-12-19T05:41:26.226Z,9.97
2018-12-19T05:43:55.027Z,11.50
2018-12-19T05:46:23.877Z,12.10
2018-12-19T05:48:52.708Z,11.87
2018-12-19T05:51:21.574Z,11.87
2018-12-19T05:53:50.674Z,11.07
2018-12-19T05:56:19.478Z,13.50
2018-12-19T05:58:48.290Z,12.33
2018-12-19T06:01:17.449Z,13.77
2018-12-19T06:03:48.222Z,13.00
2018-12-19T06:06:17.041Z,13.33
2018-12-19T06:08:45.803Z,13.97
2018-12-19T06:11:14.605Z,12.77
2018-12-19T06:13:43.456Z,13.23
2018-12-19T06:16:12.329Z,13.97
2018-12-19T06:18:41.142Z,13.33
2018-12-19T06:21:10.109Z,13.90
2018-12-19T06:23:38.926Z,13.60
2018-12-19T06:26:08.110Z,16.73
2018-12-19T06:28:36.461Z,14.70
2018-12-19T06:31:05.264Z,14.90
2018-12-19T06:33:35.016Z,15.43
2018-12-19T06:36:03.971Z,15.17
2018-12-19T06:38:32.787Z,14.13
2018-12-19T06:41:01.694Z,16.63
2018-12-19T06:43:30.517Z,17.23
2018-12-19T06:45:59.432Z,16.00
2018-12-19T06:48:28.309Z,15.03
2018-12-19T06:50:57.136Z,15.00
2018-12-19T06:53:25.943Z,15.93
2018-12-19T06:55:54.738Z,16.23
2018-12-19T06:58:23.562Z,15.37
2018-12-19T07:00:52.360Z,15.87
2018-12-19T07:03:21.173Z,16.63
2018-12-19T07:05:50.122Z,15.90
2018-12-19T07:08:18.935Z,19.03
2018-12-19T07:10:48.020Z,15.90
2018-12-19T07:13:16.954Z,15.83
2018-12-19T07:15:45.759Z,15.80
2018-12-19T07:18:14.640Z,16.47
2018-12-19T07:20:43.438Z,15.47
2018-12-19T07:23:12.241Z,17.93
2018-12-19T07:25:41.025Z,16.47
2018-12-19T07:28:09.774Z,16.83
2018-12-19T07:30:38.625Z,16.23
2018-12-19T07:33:07.422Z,16.03
2018-12-19T07:35:36.298Z,15.00
2018-12-19T07:38:05.085Z,18.17
2018-12-19T07:40:33.869Z,16.13
2018-12-19T07:43:02.643Z,14.80
2018-12-19T07:45:31.539Z,17.30
2018-12-19T07:48:00.388Z,16.93
2018-12-19T07:50:29.166Z,16.37
2018-12-19T07:52:58.026Z,17.90
2018-12-19T07:55:28.865Z,18.43
2018-12-19T07:57:57.745Z,18.57
2018-12-19T08:00:27.584Z,18.57
2018-12-19T08:02:56.627Z,17.03
2018-12-19T08:05:26.577Z,16.83
2018-12-19T08:07:55.437Z,19.90
2018-12-19T08:10:24.216Z,17.67
2018-12-19T08:12:52.960Z,18.23
2018-12-19T08:15:21.777Z,18.60
2018-12-19T08:17:50.573Z,18.27
2018-12-19T08:20:19.438Z,17.43
2018-12-19T08:22:48.173Z,18.03
2018-12-19T08:25:16.976Z,19.30
2018-12-19T08:27:45.741Z,18.90
2018-12-19T08:30:14.517Z,21.70
2018-12-19T08:32:43.666Z,18.03
2018-12-19T08:35:12.565Z,19.63
2018-12-19T08:37:41.312Z,18.77
2018-12-19T08:40:10.242Z,19.23
2018-12-19T08:42:39.006Z,18.73
2018-12-19T08:45:07.841Z,18.63
2018-12-19T08:47:36.705Z,20.90
2018-12-19T08:50:08.221Z,18.60
2018-12-19T08:52:37.069Z,18.87
2018-12-19T08:55:06.794Z,17.47
2018-12-19T08:57:35.593Z,17.47
2018-12-19T09:00:05.774Z,16.50
2018-12-19T09:02:34.617Z,17.13
2018-12-19T09:07:21.378Z,17.80
2018-12-19T09:09:50.138Z,14.10
2018-12-19T09:12:19.013Z,12.83
2018-12-19T09:14:47.818Z,14.90
2018-12-19T09:17:16.758Z,14.10
2018-12-19T09:19:45.821Z,13.70
2018-12-19T09:22:15.226Z,15.80
2018-12-19T09:24:43.995Z,14.97
2018-12-19T09:27:12.771Z,13.87
2018-12-19T09:29:41.616Z,14.70
2018-12-19T09:32:10.479Z,14.57
2018-12-19T09:34:39.245Z,13.67
2018-12-19T09:37:08.090Z,13.80
2018-12-19T09:39:36.863Z,12.47
2018-12-19T09:42:05.795Z,14.17
2018-12-19T09:44:34.770Z,14.10
2018-12-19T09:47:03.607Z,14.10
2018-12-19T09:49:32.368Z,12.30
2018-12-19T09:52:01.141Z,12.53
2018-12-19T09:54:29.906Z,14.33
2018-12-19T09:56:58.669Z,12.90
2018-12-19T09:59:27.442Z,11.87
2018-12-19T10:01:56.771Z,12.30
2018-12-19T10:04:25.539Z,10.73
2018-12-19T10:06:55.099Z,11.60
2018-12-19T10:09:23.901Z,12.50
2018-12-19T10:11:52.957Z,12.40
2018-12-19T10:14:21.713Z,12.93
2018-12-19T10:16:50.886Z,11.77
2018-12-19T10:19:19.652Z,11.53
2018-12-19T10:21:49.007Z,11.40
2018-12-19T10:24:17.797Z,12.00
2018-12-19T10:26:46.557Z,11.23
2018-12-19T10:29:15.323Z,12.83
2018-12-19T10:31:44.341Z,13.13
2018-12-19T10:34:13.124Z,12.77
2018-12-19T10:36:41.937Z,11.23
2018-12-19T10:39:16.542Z,10.40
2018-12-19T10:41:45.312Z,9.23
2018-12-19T10:44:14.361Z,11.17
2018-12-19T10:46:43.321Z,11.43
2018-12-19T10:49:12.147Z,9.77
2018-12-19T10:51:41.079Z,11.20
2018-12-19T10:54:09.922Z,10.70
2018-12-19T10:56:38.759Z,11.40
2018-12-19T10:59:07.579Z,10.83
2018-12-19T11:01:36.578Z,10.37
2018-12-19T11:04:05.512Z,11.17
2018-12-19T11:06:34.338Z,11.07
2018-12-19T11:09:04.697Z,11.73
2018-12-19T11:11:33.751Z,11.37
2018-12-19T11:14:02.663Z,11.83
2018-12-19T11:16:31.503Z,10.60
2018-12-19T11:19:00.314Z,10.33
2018-12-19T11:21:29.185Z,10.30
2018-12-19T11:23:58.257Z,10.23
2018-12-19T11:26:27.745Z,10.87
2018-12-19T11:28:56.578Z,10.00
2018-12-19T11:31:26.314Z,10.03
2018-12-19T11:33:55.225Z,9.73
2018-12-19T11:36:24.037Z,10.40
2018-12-19T11:38:53.147Z,10.23
2018-12-19T11:41:21.934Z,9.97
2018-12-19T11:43:50.796Z,9.73
2018-12-19T11:46:19.762Z,9.77
2018-12-19T11:48:48.662Z,8.43
2018-12-19T11:51:18.312Z,7.80
2018-12-19T11:53:47.615Z,8.13
2018-12-19T11:56:16.437Z,8.83
2018-12-19T11:58:45.252Z,9.33
2018-12-19T12:01:14.080Z,7.43
2018-12-19T12:03:42.966Z,8.80
2018-12-19T12:06:13.779Z,7.80
2018-12-19T12:08:42.590Z,7.27
2018-12-19T12:11:11.424Z,8.33
2018-12-19T12:13:40.253Z,7.33
2018-12-19T12:16:09.255Z,7.43
2018-12-19T12:18:38.096Z,7.37
2018-12-19T12:21:06.930Z,6.90
2018-12-19T12:23:35.808Z,6.10
2018-12-19T12:26:05.639Z,7.80
2018-12-19T12:28:35.582Z,6.20
2018-12-19T12:31:04.610Z,5.90
2018-12-19T12:33:40.243Z,7.47
2018-12-19T12:36:09.186Z,7.83
2018-12-19T12:38:38.050Z,7.53
2018-12-19T12:41:06.963Z,6.77
2018-12-19T12:43:35.745Z,6.97
2018-12-19T12:46:04.606Z,5.33
2018-12-19T12:48:33.480Z,5.93
2018-12-19T12:51:02.316Z,5.87
2018-12-19T12:53:32.125Z,5.97
2018-12-19T12:56:01.019Z,6.50
2018-12-19T12:58:29.873Z,6.93
2018-12-19T13:00:58.682Z,5.80
2018-12-19T13:03:27.486Z,5.73
2018-12-19T13:05:57.698Z,6.00
2018-12-19T13:08:26.485Z,6.60
2018-12-19T13:10:55.313Z,5.93
2018-12-19T13:13:24.135Z,5.63
2018-12-19T13:15:53.085Z,5.23
2018-12-19T13:18:21.918Z,5.90
2018-12-19T13:20:50.757Z,7.53
2018-12-19T13:23:20.648Z,6.27
2018-12-19T13:25:49.564Z,5.10
2018-12-19T13:28:18.417Z,6.30
2018-12-19T13:30:47.174Z,5.00
2018-12-19T13:33:15.957Z,6.40
2018-12-19T13:35:44.809Z,5.87
2018-12-19T13:38:13.647Z,5.50
2018-12-19T13:40:42.481Z,5.27
2018-12-19T13:43:11.313Z,4.73
2018-12-19T13:45:40.181Z,5.03
2018-12-19T13:48:09.027Z,4.87
2018-12-19T13:50:37.968Z,5.53
2018-12-19T13:53:06.887Z,6.17
2018-12-19T13:55:36.368Z,5.70
2018-12-19T13:58:07.172Z,8.07
2018-12-19T14:00:36.114Z,4.83
2018-12-19T14:03:04.971Z,5.00
2018-12-19T14:05:33.866Z,4.37
2018-12-19T14:08:02.791Z,5.67
2018-12-19T14:10:32.609Z,5.40
2018-12-19T14:13:01.615Z,5.07
2018-12-19T14:15:30.695Z,6.70
2018-12-19T14:17:59.551Z,5.47
2018-12-19T14:20:28.411Z,4.17
2018-12-19T14:22:57.305Z,4.47
2018-12-19T14:25:26.147Z,5.30
2018-12-19T14:27:55.024Z,4.93
2018-12-19T14:30:23.913Z,4.50
2018-12-19T14:32:52.804Z,4.57
2018-12-19T14:35:21.632Z,3.73
2018-12-19T14:37:50.482Z,4.97
2018-12-19T14:40:19.324Z,4.60
2018-12-19T14:42:48.208Z,6.07
2018-12-19T14:45:19.219Z,3.93
2018-12-19T14:47:48.272Z,4.37
2018-12-19T14:50:17.130Z,4.27
2018-12-19T14:52:47.035Z,5.50
2018-12-19T14:55:15.879Z,4.73
2018-12-19T14:57:44.729Z,4.27
2018-12-19T15:00:13.585Z,3.97
2018-12-19T15:02:42.421Z,4.63
2018-12-19T15:05:11.367Z,4.43
2018-12-19T15:07:40.394Z,3.97
2018-12-19T15:10:09.389Z,4.33
2018-12-19T15:12:38.364Z,4.83
2018-12-19T15:15:08.605Z,4.07
2018-12-19T15:17:37.427Z,3.57
2018-12-19T15:20:06.329Z,4.33
2018-12-19T15:22:35.084Z,4.10
2018-12-19T15:25:05.140Z,3.05
2018-12-19T15:27:33.935Z,3.97
2018-12-19T15:30:02.952Z,5.63
2018-12-19T15:32:32.805Z,6.37
2018-12-19T15:35:01.607Z,3.30
2018-12-19T15:37:30.370Z,3.53
2018-12-19T15:39:59.206Z,3.70
2018-12-19T15:42:32.433Z,4.13
2018-12-19T15:44:58.782Z,2.87
2018-12-19T15:47:27.694Z,3.63
2018-12-19T15:49:56.477Z,4.00
2018-12-19T15:52:32.319Z,2.90
2018-12-19T15:55:01.207Z,3.43
2018-12-19T15:57:30.023Z,3.17
2018-12-19T15:59:58.851Z,3.40
2018-12-19T16:02:27.883Z,3.90
2018-12-19T16:04:56.764Z,4.07
2018-12-19T16:07:27.308Z,3.07
2018-12-19T16:09:56.167Z,3.37
2018-12-19T16:12:25.418Z,3.10
2018-12-19T16:14:54.350Z,3.70
2018-12-19T16:17:23.115Z,3.20
2018-12-19T16:19:51.869Z,3.60
2018-12-19T16:22:20.697Z,3.43
2018-12-19T16:24:49.572Z,3.20
2018-12-19T16:27:18.431Z,2.93
2018-12-19T16:29:47.454Z,4.30
2018-12-19T16:32:16.302Z,4.00
2018-12-19T16:34:45.334Z,2.93
2018-12-19T16:37:14.313Z,3.50
2018-12-19T16:39:43.187Z,4.13
2018-12-19T16:42:12.099Z,3.77
2018-12-19T16:44:41.322Z,4.10
2018-12-19T16:47:10.184Z,5.20
2018-12-19T16:49:39.845Z,5.20
2018-12-19T16:52:08.771Z,5.47
2018-12-19T16:54:37.640Z,5.23
2018-12-19T16:57:06.930Z,4.67
2018-12-19T16:59:42.152Z,4.07
2018-12-19T17:02:11.251Z,5.33
2018-12-19T17:04:40.159Z,4.10
2018-12-19T17:07:09.095Z,6.08
2018-12-19T17:09:37.905Z,5.47
2018-12-19T17:12:06.830Z,6.40
2018-12-19T17:14:36.716Z,5.30
2018-12-19T17:17:05.633Z,7.30
2018-12-19T17:19:34.461Z,5.23
2018-12-19T17:22:04.701Z,5.60
2018-12-19T17:24:38.909Z,5.17
2018-12-19T17:27:07.942Z,6.13
2018-12-19T17:29:37.182Z,5.20
2018-12-19T17:32:06.072Z,4.83
2018-12-19T17:34:36.039Z,6.03
2018-12-19T17:37:06.275Z,5.13
2018-12-19T17:39:35.119Z,6.10
2018-12-19T17:42:04.348Z,5.83
2018-12-19T17:44:33.530Z,6.70
2018-12-19T17:47:02.351Z,5.27
2018-12-19T17:49:31.158Z,7.73
2018-12-19T17:52:00.244Z,5.60
2018-12-19T17:54:30.144Z,5.03
2018-12-19T17:56:58.999Z,5.83
2018-12-19T17:59:27.868Z,5.77
2018-12-19T18:01:56.895Z,4.77
2018-12-19T18:04:25.727Z,5.20
2018-12-19T18:06:54.563Z,4.63
2018-12-19T18:09:23.437Z,5.47
2018-12-19T18:11:52.778Z,5.17
2018-12-19T18:14:21.619Z,4.73
2018-12-19T18:16:50.479Z,5.90
2018-12-19T18:19:23.350Z,6.00
2018-12-19T18:21:50.231Z,5.87
2018-12-19T18:24:19.068Z,6.23
2018-12-19T18:26:47.927Z,5.30
2018-12-19T18:29:16.839Z,5.87
2018-12-19T18:31:45.715Z,5.97
2018-12-19T18:34:14.544Z,6.90
2018-12-19T18:36:43.443Z,5.67
2018-12-19T18:39:12.271Z,6.23
2018-12-19T18:41:41.094Z,6.17
2018-12-19T18:44:10.012Z,7.57
2018-12-19T18:46:38.881Z,5.87
2018-12-19T18:49:07.737Z,6.47
2018-12-19T18:51:36.617Z,7.60
2018-12-19T18:54:05.747Z,6.70
2018-12-19T18:56:34.582Z,6.17
2018-12-19T18:59:03.477Z,5.57
2018-12-19T19:01:32.404Z,6.00
2018-12-19T19:04:01.268Z,7.50
2018-12-19T19:06:30.210Z,5.90
2018-12-19T19:08:59.333Z,5.87
2018-12-19T19:11:28.996Z,5.20
2018-12-19T19:13:57.865Z,5.77
2018-12-19T19:16:28.661Z,5.97
2018-12-19T19:18:59.839Z,5.03
2018-12-19T19:21:29.176Z,5.57
2018-12-19T19:23:58.585Z,5.40
2018-12-19T19:26:28.524Z,5.77
2018-12-19T19:28:57.589Z,5.10
2018-12-19T19:31:26.466Z,6.40
2018-12-19T19:33:56.423Z,5.80
2018-12-19T19:36:25.329Z,6.63
2018-12-19T19:38:54.196Z,5.43
2018-12-19T19:41:23.101Z,5.13
2018-12-19T19:43:52.116Z,5.50
2018-12-19T19:46:20.914Z,5.33
2018-12-19T19:48:49.727Z,5.73
2018-12-19T19:51:25.986Z,5.90
2018-12-19T19:53:54.832Z,5.53
2018-12-19T19:56:24.486Z,5.20
2018-12-19T19:58:53.255Z,5.37
2018-12-19T20:01:22.174Z,6.23
2018-12-19T20:03:51.003Z,5.67
2018-12-19T20:06:19.839Z,6.13
2018-12-19T20:08:48.675Z,5.80
2018-12-19T20:11:17.459Z,6.30
2018-12-19T20:13:46.271Z,5.70
2018-12-19T20:16:15.110Z,6.03
2018-12-19T20:18:43.951Z,6.20
2018-12-19T20:21:13.662Z,6.30
2018-12-19T20:23:42.929Z,6.97
2018-12-19T20:26:11.741Z,7.40
2018-12-19T20:28:40.556Z,5.77
2018-12-19T20:31:09.378Z,6.20
2018-12-19T20:33:38.187Z,6.90
2018-12-19T20:36:06.999Z,6.00
2018-12-19T20:38:35.881Z,7.30
2018-12-19T20:41:04.999Z,6.50
2018-12-19T20:43:39.796Z,6.90
2018-12-19T20:46:04.830Z,6.70
2018-12-19T20:48:33.656Z,6.37
2018-12-19T20:51:02.591Z,6.40
2018-12-19T20:53:31.395Z,6.50
2018-12-19T20:56:03.723Z,6.80
2018-12-19T20:58:31.169Z,8.10
2018-12-19T21:00:59.967Z,6.93
2018-12-19T21:03:33.544Z,6.20
2018-12-19T21:06:02.505Z,6.60
2018-12-19T21:08:36.309Z,6.17
2018-12-19T21:11:05.795Z,6.80
2018-12-19T21:13:34.718Z,6.37
2018-12-19T21:16:03.669Z,6.43
2018-12-19T21:18:38.091Z,6.67
2018-12-19T21:21:06.943Z,6.23
2018-12-19T21:23:35.780Z,6.03
2018-12-19T21:26:04.730Z,6.23
2018-12-19T21:28:33.673Z,6.87
2018-12-19T21:31:02.501Z,7.57
2018-12-19T21:33:31.377Z,6.30
2018-12-19T21:36:00.437Z,5.73
2018-12-19T21:38:29.410Z,7.03
2018-12-19T21:40:58.277Z,7.07
2018-12-19T21:43:27.116Z,7.30
2018-12-19T21:45:55.989Z,6.17
2018-12-19T21:48:24.851Z,7.37
2018-12-19T21:50:53.683Z,7.40
2018-12-19T21:53:22.535Z,6.83
2018-12-19T21:55:51.391Z,7.03
2018-12-19T21:58:21.063Z,7.33
2018-12-19T22:00:50.048Z,6.30
2018-12-19T22:03:19.227Z,9.03
2018-12-19T22:05:48.224Z,10.03
2018-12-19T22:08:17.152Z,7.23
2018-12-19T22:10:46.182Z,8.40
2018-12-19T22:13:15.870Z,8.80
2018-12-19T22:15:44.830Z,9.43
2018-12-19T22:18:19.254Z,8.57
2018-12-19T22:20:48.202Z,10.93
2018-12-19T22:23:17.212Z,9.10
2018-12-19T22:25:46.159Z,9.97
2018-12-19T22:28:15.077Z,9.13
2018-12-19T22:30:44.169Z,8.93
2018-12-19T22:33:13.040Z,9.73
2018-12-19T22:35:42.734Z,10.03
2018-12-19T22:38:11.604Z,9.87
2018-12-19T22:40:40.513Z,9.10
2018-12-19T22:43:09.546Z,8.80
2018-12-19T22:45:38.991Z,8.90
2018-12-19T22:48:09.224Z,9.17
2018-12-19T22:50:38.160Z,9.83
2018-12-19T22:53:07.889Z,9.87
2018-12-19T22:55:36.808Z,9.93
2018-12-19T22:58:06.683Z,8.63
2018-12-19T23:00:40.940Z,11.80
2018-12-19T23:03:09.808Z,12.00
2018-12-19T23:05:44.299Z,9.63
2018-12-19T23:08:13.191Z,9.20
2018-12-19T23:10:42.328Z,9.90
2018-12-19T23:13:11.409Z,10.50
2018-12-19T23:15:42.307Z,10.37
2018-12-19T23:18:22.353Z,8.93
2018-12-19T23:20:57.211Z,10.67
2018-12-19T23:23:31.989Z,10.70
2018-12-19T23:26:06.568Z,10.30
2018-12-19T23:28:37.558Z,11.03
2018-12-19T23:31:06.548Z,10.70
2018-12-19T23:33:35.453Z,10.07
2018-12-19T23:36:04.543Z,11.07
2018-12-19T23:38:33.415Z,10.77
2018-12-19T23:41:02.328Z,11.43
2018-12-19T23:43:31.262Z,11.30
2018-12-19T23:46:00.109Z,14.83
2018-12-19T23:48:29.009Z,11.70
2018-12-19T23:50:57.867Z,12.87
2018-12-19T23:53:26.878Z,12.33
2018-12-19T23:55:55.732Z,13.60
2018-12-19T23:58:24.653Z,11.70
